createdAt,value
2022-10-26T00:01:40.367Z,6.40
2022-10-26T00:04:09.365Z,5.47
2022-10-26T00:06:38.313Z,5.30
2022-10-26T00:09:07.143Z,6.10
2022-10-26T00:11:35.976Z,5.90
2022-10-26T00:14:06.201Z,6.80
2022-10-26T00:16:35.110Z,6.00
2022-10-26T00:19:03.873Z,5.43
2022-10-26T00:21:36.532Z,6.72
2022-10-26T00:26:36.333Z,6.32
2022-10-26T00:29:06.925Z,6.55
2022-10-26T00:31:35.768Z,7.03
2022-10-26T00:34:04.611Z,7.45
2022-10-26T00:36:33.989Z,6.55
2022-10-26T00:39:02.690Z,7.85
2022-10-26T00:41:34.015Z,8.93
2022-10-26T00:44:03.007Z,8.18
2022-10-26T00:46:37.258Z,9.48
2022-10-26T00:49:14.629Z,9.10
2022-10-26T00:51:47.368Z,8.43
2022-10-26T00:54:19.180Z,8.60
2022-10-26T00:56:50.982Z,8.90
2022-10-26T00:59:25.022Z,8.32
2022-10-26T01:01:55.609Z,8.55
2022-10-26T01:04:24.538Z,8.15
2022-10-26T01:06:54.507Z,8.00
2022-10-26T01:09:24.299Z,8.38
2022-10-26T01:11:53.382Z,7.50
2022-10-26T01:14:24.652Z,6.93
2022-10-26T01:20:23.723Z,7.07
2022-10-26T01:22:58.127Z,6.80
2022-10-26T01:26:06.974Z,6.90
2022-10-26T01:28:58.398Z,6.38
2022-10-26T01:31:35.512Z,6.50
2022-10-26T01:34:11.084Z,6.90
2022-10-26T01:36:45.584Z,6.20
2022-10-26T01:39:23.093Z,6.93
2022-10-26T01:41:55.139Z,6.25
2022-10-26T01:44:30.442Z,6.45
2022-10-26T01:47:03.061Z,7.07
2022-10-26T01:49:36.007Z,6.85
2022-10-26T01:52:05.405Z,6.90
2022-10-26T01:57:14.828Z,6.00
2022-10-26T02:00:00.244Z,5.47
2022-10-26T02:02:51.896Z,6.47
2022-10-26T02:05:58.479Z,7.00
2022-10-26T02:08:43.550Z,6.07
2022-10-26T02:11:25.466Z,5.93
2022-10-26T02:13:59.236Z,6.20
2022-10-26T02:16:38.549Z,6.85
2022-10-26T02:19:16.286Z,6.38
2022-10-26T02:21:49.845Z,6.80
2022-10-26T02:24:19.749Z,6.50
2022-10-26T02:26:51.761Z,6.22
2022-10-26T02:29:21.944Z,6.32
2022-10-26T02:31:52.777Z,6.13
2022-10-26T02:34:27.238Z,6.10
2022-10-26T02:37:00.326Z,6.45
2022-10-26T02:39:32.860Z,5.70
2022-10-26T02:42:04.353Z,6.20
2022-10-26T02:44:38.060Z,6.43
2022-10-26T02:47:07.234Z,6.68
2022-10-26T02:49:38.467Z,6.32
2022-10-26T02:52:13.811Z,6.53
2022-10-26T02:55:20.473Z,7.00
2022-10-26T02:57:56.281Z,6.30
2022-10-26T03:00:25.168Z,7.47
2022-10-26T03:02:58.002Z,7.18
2022-10-26T03:05:33.090Z,6.50
2022-10-26T03:08:02.380Z,6.22
2022-10-26T03:10:34.191Z,6.80
2022-10-26T03:13:03.188Z,6.47
2022-10-26T03:15:33.151Z,6.75
2022-10-26T03:18:02.500Z,6.18
2022-10-26T03:20:34.310Z,6.63
2022-10-26T03:23:03.310Z,6.80
2022-10-26T03:25:33.621Z,6.65
2022-10-26T03:28:05.454Z,6.80
2022-10-26T03:30:34.840Z,6.63
2022-10-26T03:33:03.961Z,6.70
2022-10-26T03:35:34.330Z,6.35
2022-10-26T03:38:03.303Z,6.97
2022-10-26T03:40:32.047Z,6.55
2022-10-26T03:43:11.191Z,6.38
2022-10-26T03:45:56.432Z,7.38
2022-10-26T03:48:27.631Z,6.88
2022-10-26T03:51:00.449Z,6.97
2022-10-26T03:53:35.366Z,6.82
2022-10-26T03:56:05.529Z,7.43
2022-10-26T03:58:34.820Z,7.32
2022-10-26T04:01:04.786Z,7.43
2022-10-26T04:03:34.049Z,6.68
2022-10-26T04:06:05.725Z,6.40
2022-10-26T04:08:38.160Z,6.30
2022-10-26T04:11:08.214Z,6.95
2022-10-26T04:13:38.083Z,6.55
2022-10-26T04:16:08.012Z,7.03
2022-10-26T04:18:36.953Z,6.53
2022-10-26T04:21:07.278Z,7.90
2022-10-26T04:23:40.914Z,6.18
2022-10-26T04:28:41.163Z,6.30
2022-10-26T04:31:10.160Z,6.78
2022-10-26T04:33:39.662Z,6.68
2022-10-26T04:36:10.706Z,6.32
2022-10-26T04:38:39.731Z,6.05
2022-10-26T04:41:16.798Z,6.05
2022-10-26T04:43:53.974Z,6.75
2022-10-26T04:46:26.278Z,7.15
2022-10-26T04:48:55.751Z,6.45
2022-10-26T04:51:26.285Z,6.32
2022-10-26T04:53:56.474Z,5.97
2022-10-26T04:56:25.889Z,6.93
2022-10-26T04:58:55.406Z,7.05
2022-10-26T05:01:24.634Z,6.22
2022-10-26T05:03:54.237Z,7.50
2022-10-26T05:06:24.007Z,6.28
2022-10-26T05:08:54.295Z,6.53
2022-10-26T05:11:23.251Z,6.45
2022-10-26T05:14:16.675Z,5.63
2022-10-26T05:16:45.752Z,5.47
2022-10-26T05:19:14.949Z,5.88
2022-10-26T05:24:16.764Z,5.93
2022-10-26T05:26:45.801Z,5.60
2022-10-26T05:29:15.576Z,5.88
2022-10-26T05:31:45.474Z,6.43
2022-10-26T05:34:15.454Z,6.40
2022-10-26T05:36:46.834Z,4.78
2022-10-26T05:39:18.183Z,5.50
2022-10-26T05:41:47.524Z,5.55
2022-10-26T05:44:19.158Z,5.13
2022-10-26T05:49:18.501Z,5.65
2022-10-26T05:51:47.371Z,5.20
2022-10-26T05:54:18.207Z,5.43
2022-10-26T05:56:48.232Z,4.38
2022-10-26T05:59:18.483Z,4.40
2022-10-26T06:02:10.709Z,4.75
2022-10-26T06:04:48.149Z,5.07
2022-10-26T06:07:21.362Z,4.80
2022-10-26T06:09:53.515Z,4.93
2022-10-26T06:12:27.709Z,4.78
2022-10-26T06:14:58.356Z,4.82
2022-10-26T06:17:40.993Z,5.18
2022-10-26T06:20:30.456Z,5.03
2022-10-26T06:23:13.983Z,5.10
2022-10-26T06:25:53.179Z,5.10
2022-10-26T06:28:50.797Z,4.65
2022-10-26T06:31:22.068Z,4.85
2022-10-26T06:33:52.441Z,4.72
2022-10-26T06:36:25.054Z,5.05
2022-10-26T06:39:04.767Z,4.30
2022-10-26T06:41:37.846Z,5.30
2022-10-26T06:44:07.915Z,4.40
2022-10-26T06:46:44.164Z,4.47
2022-10-26T06:49:24.788Z,4.28
2022-10-26T06:51:59.743Z,4.90
2022-10-26T06:54:40.227Z,4.32
2022-10-26T06:57:18.573Z,3.80
2022-10-26T07:00:01.876Z,4.25
2022-10-26T07:02:31.691Z,4.43
2022-10-26T07:05:00.948Z,3.88
2022-10-26T07:07:37.765Z,4.10
2022-10-26T07:10:11.873Z,3.70
2022-10-26T07:12:50.858Z,3.50
2022-10-26T07:15:25.584Z,3.30
2022-10-26T07:18:04.593Z,3.38
2022-10-26T07:20:39.385Z,3.35
2022-10-26T07:23:12.867Z,3.22
2022-10-26T07:25:45.107Z,3.60
2022-10-26T07:28:16.997Z,3.50
2022-10-26T07:30:47.821Z,3.88
2022-10-26T07:33:17.319Z,3.65
2022-10-26T07:35:53.071Z,4.00
2022-10-26T07:38:33.362Z,3.83
2022-10-26T07:41:05.496Z,3.55
2022-10-26T07:43:36.023Z,4.32
2022-10-26T07:46:08.609Z,4.05
2022-10-26T07:48:38.748Z,4.40
2022-10-26T07:51:08.971Z,3.50
2022-10-26T07:53:39.890Z,3.97
2022-10-26T07:56:12.979Z,4.03
2022-10-26T07:58:43.811Z,3.90
2022-10-26T08:01:15.394Z,3.92
2022-10-26T08:04:01.985Z,4.60
2022-10-26T08:06:34.310Z,3.85
2022-10-26T08:09:04.886Z,4.38
2022-10-26T08:11:37.701Z,4.55
2022-10-26T08:14:08.888Z,4.50
2022-10-26T08:16:41.445Z,3.75
2022-10-26T08:21:43.344Z,3.63
2022-10-26T08:24:20.856Z,4.10
2022-10-26T08:26:49.870Z,3.60
2022-10-26T08:29:20.265Z,3.22
2022-10-26T08:31:50.445Z,3.55
2022-10-26T08:34:21.357Z,3.63
2022-10-26T08:36:52.493Z,3.05
2022-10-26T08:39:24.229Z,2.78
2022-10-26T08:42:00.444Z,2.90
2022-10-26T08:48:03.086Z,2.92
2022-10-26T08:50:40.596Z,3.33
2022-10-26T08:53:21.439Z,3.08
2022-10-26T08:56:00.832Z,3.10
2022-10-26T08:58:41.052Z,3.25
2022-10-26T09:01:12.427Z,3.20
2022-10-26T09:03:42.233Z,3.13
2022-10-26T09:06:32.863Z,2.70
2022-10-26T09:09:19.085Z,3.28
2022-10-26T09:11:59.018Z,2.88
2022-10-26T09:14:52.013Z,3.17
2022-10-26T09:17:36.117Z,3.00
2022-10-26T09:20:30.520Z,2.67
2022-10-26T09:25:41.667Z,2.72
2022-10-26T09:28:20.721Z,2.80
2022-10-26T09:30:54.669Z,2.60
2022-10-26T09:33:38.067Z,2.85
2022-10-26T09:36:16.010Z,2.67
2022-10-26T09:39:47.211Z,3.70
2022-10-26T09:42:28.682Z,2.63
2022-10-26T09:45:05.973Z,3.08
2022-10-26T09:47:40.081Z,3.42
2022-10-26T09:50:21.534Z,2.80
2022-10-26T09:52:51.505Z,2.83
2022-10-26T09:55:23.328Z,2.95
2022-10-26T09:57:59.759Z,3.30
2022-10-26T10:01:06.844Z,3.78
2022-10-26T10:03:46.917Z,3.08
2022-10-26T10:06:24.409Z,2.92
2022-10-26T10:09:14.594Z,3.28
2022-10-26T10:11:55.207Z,3.63
2022-10-26T10:14:26.174Z,3.28
2022-10-26T10:17:22.141Z,3.67
2022-10-26T10:19:55.214Z,3.33
2022-10-26T10:22:31.362Z,3.28
2022-10-26T10:25:03.014Z,3.08
2022-10-26T10:27:37.058Z,3.10
2022-10-26T10:30:24.133Z,3.38
2022-10-26T10:33:14.422Z,3.00
2022-10-26T10:35:56.253Z,3.13
2022-10-26T10:38:44.490Z,4.28
2022-10-26T10:44:32.706Z,3.28
2022-10-26T10:47:10.167Z,3.17
2022-10-26T10:49:44.477Z,3.33
2022-10-26T10:52:38.033Z,3.10
2022-10-26T10:55:20.653Z,3.00
2022-10-26T10:58:13.580Z,3.90
2022-10-26T11:00:58.345Z,4.22
2022-10-26T11:04:24.669Z,4.43
2022-10-26T11:07:29.658Z,4.23
2022-10-26T11:10:06.749Z,4.20
2022-10-26T11:13:39.163Z,3.50
2022-10-26T11:16:19.496Z,3.65
2022-10-26T11:18:57.620Z,4.90
2022-10-26T11:21:30.185Z,3.58
2022-10-26T11:24:11.563Z,4.72
2022-10-26T11:26:46.612Z,4.97
2022-10-26T11:29:53.349Z,4.00
2022-10-26T11:32:36.827Z,3.45
2022-10-26T11:35:16.718Z,4.20
2022-10-26T11:37:51.244Z,4.43
2022-10-26T11:40:31.763Z,3.70
2022-10-26T11:43:14.292Z,2.95
2022-10-26T11:45:46.278Z,3.23
2022-10-26T11:48:24.963Z,3.55
2022-10-26T11:50:58.275Z,3.42
2022-10-26T11:53:32.876Z,3.28
2022-10-26T11:56:04.939Z,3.40
2022-10-26T11:58:41.884Z,3.80
2022-10-26T12:02:29.493Z,4.07
2022-10-26T12:05:25.176Z,3.60
2022-10-26T12:08:23.944Z,4.65
2022-10-26T12:14:24.348Z,3.28
2022-10-26T12:17:06.203Z,3.70
2022-10-26T12:19:57.033Z,3.63
2022-10-26T12:22:36.704Z,3.58
2022-10-26T12:25:20.866Z,3.50
2022-10-26T12:28:02.564Z,3.63
2022-10-26T12:30:34.319Z,3.95
2022-10-26T12:33:08.499Z,4.07
2022-10-26T16:14:06.646Z,3.25
2022-10-26T16:16:36.754Z,2.88
2022-10-26T16:19:29.200Z,3.78
2022-10-26T16:22:48.575Z,2.70
2022-10-26T16:25:27.438Z,2.60
2022-10-26T16:27:56.689Z,3.00
2022-10-26T16:30:30.500Z,2.58
2022-10-26T16:32:59.784Z,2.72
2022-10-26T16:35:29.018Z,3.00
2022-10-26T16:38:43.432Z,2.28
2022-10-26T16:42:00.841Z,1.92
2022-10-26T16:44:29.650Z,2.13
2022-10-26T16:47:30.207Z,2.20
2022-10-26T16:50:01.102Z,1.80
2022-10-26T16:52:30.610Z,2.10
2022-10-26T16:54:59.919Z,2.05
2022-10-26T16:57:28.620Z,2.10
2022-10-26T16:59:57.781Z,2.40
2022-10-26T17:02:31.000Z,2.42
2022-10-26T17:05:02.889Z,2.25
2022-10-26T17:07:34.959Z,2.47
2022-10-26T17:10:03.985Z,2.58
2022-10-26T17:12:32.778Z,2.50
2022-10-26T17:15:02.686Z,2.20
2022-10-26T17:17:33.216Z,2.55
2022-10-26T17:20:02.462Z,2.83
2022-10-26T17:22:31.716Z,2.60
2022-10-26T17:25:00.981Z,2.63
2022-10-26T17:27:30.562Z,2.53
2022-10-26T17:29:59.927Z,2.92
2022-10-26T17:32:28.815Z,2.60
2022-10-26T17:34:59.071Z,2.58
2022-10-26T17:39:56.560Z,3.30
2022-10-26T17:42:40.783Z,2.83
2022-10-26T17:45:10.942Z,2.70
2022-10-26T17:47:40.215Z,2.60
2022-10-26T17:50:12.745Z,3.08
2022-10-26T17:52:52.590Z,2.75
2022-10-26T17:55:22.847Z,2.70
2022-10-26T17:58:21.815Z,2.45
2022-10-26T18:03:46.485Z,2.55
2022-10-26T18:06:23.492Z,3.60
2022-10-26T18:08:58.639Z,2.33
2022-10-26T18:14:00.511Z,2.13
2022-10-26T18:16:34.732Z,2.55
2022-10-26T18:19:06.741Z,2.60
2022-10-26T18:21:49.185Z,2.58
2022-10-26T18:25:10.779Z,3.00
2022-10-26T18:30:41.890Z,2.75
2022-10-26T18:33:40.277Z,2.42
2022-10-26T18:36:48.073Z,2.40
2022-10-26T18:39:33.547Z,2.65
2022-10-26T18:43:11.245Z,2.15
2022-10-26T18:45:23.247Z,2.25
2022-10-26T18:47:59.524Z,2.55
2022-10-26T18:53:22.571Z,2.55
2022-10-26T18:56:04.507Z,2.67
2022-10-26T18:58:35.457Z,2.10
2022-10-26T19:01:33.764Z,2.70
2022-10-26T19:04:04.981Z,2.42
2022-10-26T19:06:37.709Z,2.72
2022-10-26T19:09:10.147Z,2.55
2022-10-26T19:11:43.704Z,3.42
2022-10-26T19:14:16.177Z,2.60
2022-10-26T19:16:49.302Z,3.00
2022-10-26T19:19:25.577Z,2.22
2022-10-26T19:21:55.484Z,2.40
2022-10-26T19:24:29.801Z,2.40
2022-10-26T19:27:00.340Z,2.40
2022-10-26T19:29:29.490Z,2.90
2022-10-26T19:32:17.995Z,2.80
2022-10-26T19:34:58.856Z,2.90
2022-10-26T19:37:29.739Z,2.92
2022-10-26T19:40:03.825Z,3.30
2022-10-26T19:42:36.647Z,3.13
2022-10-26T19:45:06.204Z,2.70
2022-10-26T19:47:36.241Z,3.70
2022-10-26T19:50:07.350Z,2.60
2022-10-26T19:52:38.349Z,2.72
2022-10-26T19:55:10.353Z,3.42
2022-10-26T19:57:52.891Z,3.17
2022-10-26T20:00:23.387Z,2.45
2022-10-26T20:02:56.952Z,2.58
2022-10-26T20:05:32.187Z,2.63
2022-10-26T20:08:05.919Z,2.35
2022-10-26T20:11:11.681Z,2.72
2022-10-26T20:13:51.205Z,2.53
2022-10-26T20:16:22.519Z,2.80
2022-10-26T20:18:58.203Z,2.90
2022-10-26T20:21:37.487Z,2.67
2022-10-26T20:24:21.825Z,2.80
2022-10-26T20:27:02.357Z,2.97
2022-10-26T20:29:40.118Z,3.10
2022-10-26T20:32:18.556Z,2.60
2022-10-26T20:34:49.897Z,2.28
2022-10-26T20:37:22.859Z,2.83
2022-10-26T20:39:55.302Z,2.70
2022-10-26T20:42:30.235Z,2.80
2022-10-26T20:45:25.141Z,3.00
2022-10-26T20:47:59.622Z,3.35
2022-10-26T20:50:50.429Z,2.85
2022-10-26T20:53:38.060Z,3.00
2022-10-26T20:56:13.840Z,3.20
2022-10-26T20:59:01.901Z,2.80
2022-10-26T21:01:44.718Z,3.28
2022-10-26T21:04:20.141Z,3.50
2022-10-26T21:06:52.231Z,3.47
2022-10-26T21:09:23.278Z,3.38
2022-10-26T21:11:52.943Z,3.40
2022-10-26T21:14:26.588Z,3.75
2022-10-26T21:16:56.732Z,3.90
2022-10-26T21:19:37.998Z,3.78
2022-10-26T21:22:11.400Z,4.15
2022-10-26T21:24:53.280Z,4.13
2022-10-26T21:27:24.554Z,3.20
2022-10-26T21:30:12.077Z,3.67
2022-10-26T21:32:42.645Z,3.90
2022-10-26T21:35:16.063Z,3.85
2022-10-26T21:37:45.076Z,4.05
2022-10-26T21:40:16.746Z,3.88
2022-10-26T21:42:50.633Z,3.72
2022-10-26T21:45:20.145Z,3.50
2022-10-26T21:47:53.785Z,3.42
2022-10-26T21:52:54.071Z,3.58
2022-10-26T21:55:22.856Z,4.25
2022-10-26T21:57:53.695Z,4.00
2022-10-26T22:00:22.821Z,3.90
2022-10-26T22:02:53.398Z,4.10
2022-10-26T22:05:22.276Z,3.70
2022-10-26T22:07:51.284Z,4.20
2022-10-26T22:10:20.339Z,4.38
2022-10-26T22:12:49.028Z,4.38
2022-10-26T22:15:18.301Z,4.15
2022-10-26T22:17:47.157Z,3.92
2022-10-26T22:20:17.298Z,4.60
2022-10-26T22:22:46.036Z,4.70
2022-10-26T22:25:16.878Z,3.95
2022-10-26T22:27:45.596Z,4.13
2022-10-26T22:30:14.765Z,4.75
2022-10-26T22:32:43.928Z,4.28
2022-10-26T22:35:28.531Z,4.15
2022-10-26T22:37:59.397Z,4.18
2022-10-26T22:40:28.244Z,4.57
2022-10-26T22:42:57.092Z,4.68
2022-10-26T22:45:26.125Z,4.60
2022-10-26T22:47:54.958Z,4.38
2022-10-26T22:50:23.895Z,4.70
2022-10-26T22:52:52.764Z,4.57
2022-10-26T22:55:23.402Z,4.00
2022-10-26T22:57:52.438Z,4.70
2022-10-26T23:00:21.709Z,5.25
2022-10-26T23:02:50.480Z,4.88
2022-10-26T23:05:19.263Z,4.65
2022-10-26T23:07:48.305Z,4.78
2022-10-26T23:10:17.187Z,4.78
2022-10-26T23:12:50.035Z,4.88
2022-10-26T23:15:18.941Z,4.38
2022-10-26T23:17:47.795Z,4.85
2022-10-26T23:20:16.947Z,5.10
2022-10-26T23:22:45.928Z,4.63
2022-10-26T23:25:15.112Z,4.80
2022-10-26T23:27:43.744Z,4.22
2022-10-26T23:30:14.253Z,5.53
2022-10-26T23:32:42.914Z,5.45
2022-10-26T23:35:11.692Z,5.10
2022-10-26T23:37:40.551Z,5.03
2022-10-26T23:40:10.908Z,4.80
2022-10-26T23:42:39.811Z,5.70
2022-10-26T23:45:08.964Z,6.32
2022-10-26T23:47:39.228Z,6.03
2022-10-26T23:50:09.000Z,5.25
2022-10-26T23:52:37.748Z,5.95
2022-10-26T23:55:07.148Z,6.22
2022-10-26T23:57:35.916Z,6.05
